Time;durP1;ratioP1;P1;durP2;ratioP2;P2;SDS_P1;SDS_P2;PMS_P1;PMS_P2;Temp;Humidity;BMP_temperature;BMP_pressure;BME280_temperature;BME280_humidity;BME280_pressure;Samples;Min_cycle;Max_cycle;Signal;HPM_P1;HPM_P2
2021/12/18 00:03:10;;;;;;;2.27;1.25;;;;;;;10.91;56.17;101544.52;2276443;86;25789;-72
2021/12/18 00:06:31;;;;;;;3.50;1.65;;;;;;;10.91;56.19;101552.34;2277481;86;25822;-77
2021/12/18 00:09:56;;;;;;;2.20;1.32;;;;;;;10.90;56.22;101554.08;2277716;85;30857;-72
2021/12/18 00:13:19;;;;;;;4.25;1.75;;;;;;;10.90;56.24;101559.68;2276863;86;25780;-74
2021/12/18 00:16:48;;;;;;;2.10;1.35;;;;;;;10.89;56.25;101549.66;2276883;86;26432;-75
2021/12/18 00:20:19;;;;;;;3.47;1.37;;;;;;;10.89;56.27;101545.75;2233745;86;25329;-72
2021/12/18 00:23:43;;;;;;;3.30;1.65;;;;;;;10.89;56.26;101536.61;2235890;88;25835;-74
2021/12/18 00:27:04;;;;;;;4.70;1.80;;;;;;;10.87;56.28;101532.66;2240974;86;25785;-75
2021/12/18 00:30:26;;;;;;;3.00;1.42;;;;;;;10.87;56.28;101535.27;2233800;86;26067;-71
2021/12/18 00:33:50;;;;;;;3.70;1.37;;;;;;;10.86;56.29;101551.72;2250620;85;25724;-71
2021/12/18 00:37:12;;;;;;;2.58;1.60;;;;;;;10.84;56.30;101557.31;2255494;86;25726;-77
2021/12/18 00:41:10;;;;;;;3.98;1.90;;;;;;;10.84;56.29;101561.64;2277235;85;25227;-76
2021/12/18 00:44:07;;;;;;;2.75;2.08;;;;;;;10.83;56.30;101564.67;2253350;86;25908;-72
2021/12/18 00:47:28;;;;;;;2.22;1.40;;;;;;;10.83;56.31;101580.71;2277914;86;25822;-71
2021/12/18 00:50:52;;;;;;;3.20;1.75;;;;;;;10.82;56.32;101579.83;2278877;86;30509;-75
2021/12/18 00:54:14;;;;;;;5.25;1.75;;;;;;;10.81;56.32;101584.99;2277883;86;25843;-76
2021/12/18 00:57:37;;;;;;;3.75;1.72;;;;;;;10.80;56.33;101602.75;2282429;86;30490;-81
2021/12/18 01:00:59;;;;;;;3.20;1.27;;;;;;;10.79;56.35;101586.22;2276327;86;26108;-71
2021/12/18 01:04:28;;;;;;;3.83;1.52;;;;;;;10.78;56.34;101579.64;2282194;85;25795;-73
2021/12/18 01:07:55;;;;;;;4.53;1.95;;;;;;;10.77;56.32;101573.54;2239598;86;25773;-76
2021/12/18 01:11:32;;;;;;;4.08;1.87;;;;;;;10.75;56.35;101576.48;2281959;85;25709;-76
2021/12/18 01:15:07;;;;;;;2.65;1.37;;;;;;;10.74;56.35;101581.23;2276771;86;25646;-80
2021/12/18 01:25:40;;;;;;;3.08;1.45;;;;;;;10.69;56.38;101580.13;2282033;86;25739;-80
2021/12/18 01:29:01;;;;;;;2.83;1.50;;;;;;;10.68;56.40;101580.09;2282045;86;25825;-71
2021/12/18 01:32:22;;;;;;;2.37;1.50;;;;;;;10.68;56.43;101582.70;2282060;86;30757;-80
2021/12/18 01:35:43;;;;;;;3.17;1.82;;;;;;;10.66;56.45;101577.39;2282085;86;25952;-72
2021/12/18 01:39:04;;;;;;;3.08;1.50;;;;;;;10.64;56.47;101586.47;2282236;85;25639;-81
2021/12/18 01:53:06;;;;;;;;;;;;;;;10.60;56.54;101591.09;2284274;85;25836;-72
2021/12/18 01:56:30;;;;;;;3.10;1.82;;;;;;;10.59;56.52;101591.00;2276232;86;25640;-72
2021/12/18 01:59:53;;;;;;;3.58;1.62;;;;;;;10.56;56.53;101594.78;2236884;86;25689;-72
2021/12/18 02:03:14;;;;;;;2.65;1.67;;;;;;;10.53;56.54;101601.16;2236275;87;25770;-80
2021/12/18 02:06:35;;;;;;;1.98;1.27;;;;;;;10.52;56.54;101601.58;2258040;86;31202;-81
2021/12/18 02:10:05;;;;;;;3.57;1.33;;;;;;;10.50;56.54;101589.33;2258504;86;28854;-80
2021/12/18 02:13:36;;;;;;;3.65;1.70;;;;;;;10.47;56.57;101605.72;2257553;86;25727;-80
2021/12/18 02:20:41;;;;;;;3.92;1.82;;;;;;;10.41;56.60;101592.41;2257762;87;25687;-73
2021/12/18 02:24:02;;;;;;;2.92;1.98;;;;;;;10.36;56.58;101593.53;2257514;86;26097;-72
2021/12/18 02:27:27;;;;;;;4.17;1.62;;;;;;;10.34;56.57;101586.45;2257869;87;25289;-74
2021/12/18 02:30:56;;;;;;;3.05;1.47;;;;;;;10.29;56.56;101581.44;2257656;87;25682;-75
2021/12/18 02:34:24;;;;;;;5.40;2.17;;;;;;;10.25;56.58;101579.08;2237134;87;25657;-76
2021/12/18 02:37:43;;;;;;;5.55;2.47;;;;;;;10.23;56.56;101587.67;2257286;86;25746;-75
2021/12/18 02:44:47;;;;;;;3.05;1.35;;;;;;;10.15;56.56;101579.49;2236389;87;25835;-71
2021/12/18 02:48:08;;;;;;;4.25;1.85;;;;;;;10.10;56.55;101588.42;2258100;87;26065;-74
2021/12/18 02:51:29;;;;;;;3.45;1.80;;;;;;;10.07;56.54;101581.77;2222963;86;25961;-72
2021/12/18 02:54:50;;;;;;;4.53;1.87;;;;;;;10.04;56.57;101579.02;2279699;86;25622;-71
2021/12/18 02:58:13;;;;;;;3.27;1.65;;;;;;;9.99;56.55;101580.55;2214963;86;29831;-72
2021/12/18 03:01:39;;;;;;;2.40;1.42;;;;;;;9.97;56.58;101587.39;2279637;85;25286;-72
2021/12/18 03:05:05;;;;;;;3.17;1.50;;;;;;;9.94;56.56;101592.45;2257360;86;26024;-72
2021/12/18 03:08:36;;;;;;;2.52;1.65;;;;;;;9.91;56.55;101600.13;2257206;86;25742;-71
2021/12/18 03:26:22;;;;;;;4.25;2.27;;;;;;;9.77;56.61;101590.80;2245810;87;25726;-71
2021/12/18 03:29:43;;;;;;;3.77;1.93;;;;;;;9.73;56.66;101575.86;2219133;88;30122;-72
2021/12/18 03:33:07;;;;;;;4.53;1.60;;;;;;;9.72;56.71;101564.94;2177611;88;30044;-72
2021/12/18 03:36:28;;;;;;;3.95;1.95;;;;;;;9.70;56.77;101561.86;2240672;87;26384;-73
2021/12/18 03:39:49;;;;;;;3.20;1.63;;;;;;;9.69;56.82;101560.09;2219431;88;29892;-71
2021/12/18 03:43:10;;;;;;;3.25;1.60;;;;;;;9.70;56.86;101568.38;2240826;86;25694;-71
2021/12/18 03:46:34;;;;;;;5.23;2.43;;;;;;;9.69;56.89;101575.72;2240635;88;30109;-71
2021/12/18 03:49:55;;;;;;;3.92;1.72;;;;;;;9.70;56.90;101583.11;2219424;88;25772;-72
2021/12/18 03:53:20;;;;;;;3.08;1.77;;;;;;;9.71;56.92;101596.60;2232314;86;25703;-74
2021/12/18 03:56:46;;;;;;;2.83;1.85;;;;;;;9.70;56.96;101595.72;2276227;86;25721;-72
2021/12/18 04:00:12;;;;;;;3.37;2.15;;;;;;;9.71;56.96;101583.58;2275558;87;25854;-72
2021/12/18 04:03:35;;;;;;;2.52;1.67;;;;;;;9.72;56.98;101597.48;2253850;85;25857;-72
2021/12/18 04:06:56;;;;;;;4.12;2.10;;;;;;;9.72;56.99;101591.90;2274817;87;25764;-71
2021/12/18 04:10:20;;;;;;;3.50;2.07;;;;;;;9.72;57.01;101589.30;2253217;87;31605;-70
2021/12/18 04:13:44;;;;;;;4.50;2.22;;;;;;;9.73;57.02;101587.16;2253417;87;25848;-72
2021/12/18 04:17:17;;;;;;;4.05;2.12;;;;;;;9.73;57.03;101594.97;2274952;87;25920;-72
2021/12/18 04:20:40;;;;;;;3.50;2.10;;;;;;;9.74;57.04;101591.54;2231918;85;25808;-75
2021/12/18 04:24:03;;;;;;;4.30;2.35;;;;;;;9.75;57.02;101584.61;2275348;87;25758;-74
2021/12/18 04:27:24;;;;;;;3.10;1.92;;;;;;;9.75;57.03;101576.38;2329302;82;25866;-74
2021/12/18 04:30:44;;;;;;;6.90;2.12;;;;;;;9.75;57.02;101573.78;2395149;81;29876;-73
2021/12/18 04:34:09;;;;;;;3.72;1.92;;;;;;;9.76;57.00;101582.09;2394563;82;25168;-75
2021/12/18 04:37:37;;;;;;;3.60;2.08;;;;;;;9.76;56.99;101578.61;2394277;81;25593;-72
2021/12/18 04:41:06;;;;;;;3.50;2.10;;;;;;;9.76;56.99;101582.52;2394612;82;25838;-71
2021/12/18 04:44:26;;;;;;;4.03;1.92;;;;;;;9.75;57.00;101571.17;2370174;82;26010;-72
2021/12/18 04:47:54;;;;;;;7.03;3.47;;;;;;;9.76;56.99;101572.09;2394494;82;29530;-71
2021/12/18 04:51:15;;;;;;;3.12;2.10;;;;;;;9.75;56.98;101571.17;2343441;82;25640;-71
2021/12/18 04:54:38;;;;;;;3.22;2.27;;;;;;;9.76;56.94;101564.28;2370257;83;25702;-72
2021/12/18 04:57:59;;;;;;;3.87;2.27;;;;;;;9.76;56.96;101559.08;2369462;83;25630;-76
2021/12/18 05:01:22;;;;;;;3.33;1.98;;;;;;;9.75;56.97;101558.16;2371078;83;25626;-71
2021/12/18 05:04:43;;;;;;;3.90;2.20;;;;;;;9.76;56.94;101557.77;2346186;83;25774;-82
2021/12/18 05:08:05;;;;;;;4.13;2.03;;;;;;;9.75;56.96;101563.78;2323394;83;28990;-79
2021/12/18 05:11:26;;;;;;;4.20;2.10;;;;;;;9.75;56.96;101566.38;2346861;83;25630;-72
2021/12/18 05:14:48;;;;;;;3.67;1.97;;;;;;;9.76;56.96;101567.77;2369264;83;34759;-72
2021/12/18 05:18:10;;;;;;;3.62;2.10;;;;;;;9.77;56.97;101569.96;2370848;83;25985;-72
2021/12/18 05:21:35;;;;;;;4.12;2.33;;;;;;;9.76;56.95;101556.47;2346580;83;25604;-72
2021/12/18 05:25:01;;;;;;;5.83;2.25;;;;;;;9.76;56.96;101545.64;2345733;83;25504;-71
2021/12/18 05:28:24;;;;;;;3.75;2.85;;;;;;;9.76;56.93;101544.34;2369492;83;25629;-71
2021/12/18 05:31:45;;;;;;;3.60;2.17;;;;;;;9.75;56.93;101539.92;2369415;82;25654;-72
2021/12/18 05:35:07;;;;;;;3.27;2.37;;;;;;;9.76;56.95;101530.42;2368811;83;30437;-70
2021/12/18 05:38:28;;;;;;;3.15;2.20;;;;;;;9.76;56.92;101549.95;2369333;82;25922;-71
2021/12/18 05:41:51;;;;;;;4.70;2.70;;;;;;;9.75;56.91;101550.34;2369227;82;34792;-77
2021/12/18 05:45:12;;;;;;;5.47;2.67;;;;;;;9.76;56.92;101551.27;2369326;83;25582;-72
2021/12/18 05:48:33;;;;;;;3.70;2.17;;;;;;;9.75;56.92;101554.25;2369360;82;25839;-73
2021/12/18 05:51:54;;;;;;;5.00;2.38;;;;;;;9.76;56.92;101565.59;2322015;83;29202;-71
2021/12/18 05:55:18;;;;;;;6.28;2.45;;;;;;;9.76;56.92;101566.89;2370847;82;25570;-73
2021/12/18 05:58:41;;;;;;;4.55;2.37;;;;;;;9.76;56.93;101561.68;2369552;83;25586;-75
2021/12/18 06:02:05;;;;;;;5.60;2.60;;;;;;;9.75;56.93;101563.36;2368701;83;25756;-73
2021/12/18 06:05:42;;;;;;;3.25;2.40;;;;;;;9.76;56.92;101556.47;2344306;82;25709;-72
2021/12/18 06:09:03;;;;;;;6.30;2.37;;;;;;;9.76;56.88;101562.98;2346777;83;25643;-77
2021/12/18 06:12:27;;;;;;;3.93;2.47;;;;;;;9.75;56.86;101554.66;2323629;83;30904;-78
2021/12/18 06:15:48;;;;;;;4.10;2.98;;;;;;;9.74;56.87;101551.59;2370699;82;25787;-72
2021/12/18 06:19:11;;;;;;;4.77;2.47;;;;;;;9.73;56.84;101550.70;2369541;83;29988;-71
2021/12/18 06:22:48;;;;;;;3.45;2.30;;;;;;;9.74;56.87;101555.49;2368823;82;25669;-73
2021/12/18 06:26:16;;;;;;;6.37;2.67;;;;;;;9.74;56.86;101558.09;2369390;83;25689;-73
2021/12/18 06:29:39;;;;;;;4.22;2.87;;;;;;;9.73;56.88;101555.91;2370871;83;25622;-74
2021/12/18 06:32:59;;;;;;;3.77;2.22;;;;;;;9.75;56.87;101557.27;2369455;83;26019;-73
2021/12/18 06:36:30;;;;;;;4.42;2.77;;;;;;;9.73;56.89;101557.21;2369082;82;29921;-71
2021/12/18 06:39:53;;;;;;;6.03;2.60;;;;;;;9.74;56.88;101564.20;2369471;83;25637;-73
2021/12/18 06:43:16;;;;;;;4.20;2.42;;;;;;;9.74;56.88;101565.50;2369251;82;25617;-71
2021/12/18 06:46:45;;;;;;;4.12;2.30;;;;;;;9.75;56.87;101559.88;2369370;82;25512;-71
2021/12/18 06:50:06;;;;;;;3.02;2.50;;;;;;;9.75;56.87;101545.13;2346902;83;25550;-73
2021/12/18 06:53:27;;;;;;;5.20;3.58;;;;;;;9.75;56.86;101534.72;2353681;83;25685;-72
2021/12/18 06:56:49;;;;;;;6.25;2.72;;;;;;;9.75;56.85;101526.02;2423527;81;25608;-71
2021/12/18 07:00:27;;;;;;;5.33;2.17;;;;;;;9.76;56.84;101538.23;2406913;81;25642;-72
2021/12/18 07:03:55;;;;;;;3.95;2.30;;;;;;;9.76;56.79;101531.31;2379724;83;25704;-76
2021/12/18 07:07:21;;;;;;;3.72;2.15;;;;;;;9.76;56.78;101527.83;2358219;83;25363;-75
2021/12/18 07:10:42;;;;;;;6.70;2.80;;;;;;;9.77;56.79;101520.48;2381277;82;25697;-72
2021/12/18 07:14:09;;;;;;;4.03;2.10;;;;;;;9.78;56.79;101520.53;2379787;82;30064;-72
2021/12/18 07:17:33;;;;;;;5.67;2.52;;;;;;;9.77;56.76;101509.64;2334128;82;25731;-74
2021/12/18 07:21:01;;;;;;;2.75;1.85;;;;;;;9.78;56.75;101512.72;2380530;82;25846;-72
2021/12/18 07:24:25;;;;;;;5.25;2.47;;;;;;;9.78;56.71;101501.42;2376894;83;25677;-73
2021/12/18 07:27:49;;;;;;;2.40;1.72;;;;;;;9.79;56.69;101496.30;2379620;82;26054;-72
2021/12/18 07:31:17;;;;;;;6.00;2.40;;;;;;;9.79;56.67;101509.73;2379944;82;25688;-72
2021/12/18 07:34:43;;;;;;;4.33;2.47;;;;;;;9.81;56.65;101513.28;2380165;82;25771;-72
2021/12/18 07:38:08;;;;;;;4.65;2.50;;;;;;;9.80;56.63;101510.20;2357069;82;45876;-76
2021/12/18 07:41:29;;;;;;;5.55;2.83;;;;;;;9.81;56.63;101513.28;2357345;82;25688;-75
2021/12/18 07:45:01;;;;;;;3.50;2.27;;;;;;;9.82;56.62;101528.07;2379924;83;25145;-73
2021/12/18 07:48:27;;;;;;;3.45;2.27;;;;;;;9.83;56.60;101532.48;2399937;81;25807;-72
2021/12/18 07:51:48;;;;;;;4.92;3.02;;;;;;;9.81;56.59;101536.30;2423512;81;25720;-78
2021/12/18 07:55:08;;;;;;;3.58;2.22;;;;;;;9.82;56.58;101544.62;2422541;81;30579;-71
2021/12/18 07:58:30;;;;;;;8.10;2.30;;;;;;;9.83;56.57;101546.80;2422641;81;25676;-74
2021/12/18 08:01:53;;;;;;;3.70;2.62;;;;;;;9.84;56.56;101542.95;2422357;81;25689;-72
2021/12/18 08:05:19;;;;;;;4.25;2.58;;;;;;;9.83;56.54;101535.09;2418295;81;25925;-71
2021/12/18 08:08:43;;;;;;;6.25;3.90;;;;;;;9.84;56.56;101531.65;2421542;81;25605;-70
2021/12/18 08:12:10;;;;;;;5.10;2.67;;;;;;;9.84;56.54;101526.02;2410197;80;31023;-72
2021/12/18 08:15:30;;;;;;;5.40;3.25;;;;;;;9.86;56.55;101524.39;2387606;82;25666;-73
2021/12/18 08:18:59;;;;;;;5.55;3.25;;;;;;;9.89;56.54;101528.44;2338359;82;25719;-81
2021/12/18 08:22:19;;;;;;;4.72;3.00;;;;;;;9.89;56.54;101541.47;2384202;82;26038;-72
2021/12/18 08:25:40;;;;;;;4.37;3.17;;;;;;;9.90;56.53;101530.20;2388595;81;29577;-87
2021/12/18 08:29:03;;;;;;;5.12;3.27;;;;;;;9.91;56.49;101522.86;2375172;82;25675;-74
2021/12/18 08:32:28;;;;;;;4.40;3.08;;;;;;;9.91;56.47;101512.45;2386267;82;25685;-74
2021/12/18 08:35:50;;;;;;;5.30;4.05;;;;;;;9.92;56.47;101510.34;2384984;82;25719;-76
2021/12/18 08:39:11;;;;;;;5.15;3.72;;;;;;;9.92;56.46;101503.83;2365015;82;25874;-75
2021/12/18 08:42:32;;;;;;;5.83;3.23;;;;;;;9.93;56.45;101506.91;2375775;82;30113;-71
2021/12/18 08:45:53;;;;;;;5.67;3.80;;;;;;;9.95;56.47;101506.95;2374805;83;31038;-75
2021/12/18 08:49:14;;;;;;;3.83;3.17;;;;;;;9.97;56.49;101513.14;2374478;83;34879;-75
2021/12/18 08:52:40;;;;;;;5.28;3.22;;;;;;;9.99;56.47;101507.59;2385351;82;25709;-72
2021/12/18 08:56:01;;;;;;;6.75;3.98;;;;;;;10.00;56.45;101497.64;2399100;81;25601;-73
2021/12/18 08:59:21;;;;;;;4.27;3.73;;;;;;;10.02;56.45;101489.88;2400454;82;29081;-70
2021/12/18 09:02:46;;;;;;;5.50;4.15;;;;;;;10.04;56.44;101479.12;2400854;82;29011;-70
2021/12/18 09:06:07;;;;;;;7.22;3.55;;;;;;;10.04;56.42;101468.70;2400505;82;25710;-76
2021/12/18 09:09:28;;;;;;;9.45;5.08;;;;;;;10.16;60.97;101452.30;2388182;82;29550;-71
2021/12/18 09:12:52;;;;;;;8.95;4.90;;;;;;;10.37;60.12;101453.23;2359422;82;26325;-80
2021/12/18 09:16:15;;;;;;;9.10;5.53;;;;;;;10.38;59.80;101453.69;2330352;84;25698;-80
2021/12/18 09:19:37;;;;;;;10.10;5.65;;;;;;;10.35;59.58;101450.95;2310955;83;25718;-71
2021/12/18 09:23:00;;;;;;;11.18;5.35;;;;;;;10.33;59.48;101449.14;2314815;84;25696;-78
2021/12/18 09:26:21;;;;;;;7.58;5.45;;;;;;;10.29;59.38;101435.09;2315063;84;25704;-90
2021/12/18 09:29:42;;;;;;;10.72;5.60;;;;;;;10.29;59.29;101431.56;2307928;84;25643;-73
2021/12/18 09:33:03;;;;;;;15.13;5.97;;;;;;;10.29;59.17;101430.26;2311375;84;28971;-79
2021/12/18 09:36:24;;;;;;;10.05;5.83;;;;;;;10.30;59.09;101425.55;2322976;84;25793;-82
2021/12/18 09:39:45;;;;;;;9.83;5.65;;;;;;;10.30;58.98;101426.84;2333313;84;25183;-71
2021/12/18 09:43:10;;;;;;;8.78;5.58;;;;;;;10.30;58.92;101421.22;2338435;84;25677;-71
2021/12/18 09:46:34;;;;;;;8.43;5.78;;;;;;;10.31;58.84;101428.62;2338614;84;25711;-80
2021/12/18 09:49:56;;;;;;;8.48;5.90;;;;;;;10.29;58.79;101418.14;2338607;84;25259;-78
2021/12/18 09:53:18;;;;;;;7.10;5.58;;;;;;;10.28;58.74;101421.55;2338288;84;25912;-78
2021/12/18 09:56:39;;;;;;;8.58;5.72;;;;;;;10.30;59.53;101413.40;2314328;84;30545;-80
2021/12/18 10:00:01;;;;;;;8.00;5.87;;;;;;;10.32;59.77;101402.60;2339075;84;25696;-77
2021/12/18 10:03:52;;;;;;;7.55;5.10;;;;;;;10.32;59.79;101403.91;2335745;84;25575;-78
2021/12/18 10:07:25;;;;;;;9.58;6.22;;;;;;;10.32;59.78;101399.11;2333533;84;25836;-73
2021/12/18 10:11:06;;;;;;;8.08;5.58;;;;;;;10.30;59.81;101391.66;2320311;84;25664;-71
2021/12/18 10:14:38;;;;;;;7.33;5.85;;;;;;;10.29;59.73;101384.65;2328777;83;25707;-76
2021/12/18 10:18:11;;;;;;;8.45;5.53;;;;;;;10.27;59.69;101379.39;2335007;84;25668;-81
2021/12/18 10:21:32;;;;;;;7.90;5.87;;;;;;;10.26;59.63;101380.23;2341228;82;26308;-82
2021/12/18 10:25:06;;;;;;;8.40;6.53;;;;;;;10.28;59.59;101373.75;2337078;84;29925;-75
2021/12/18 10:28:45;;;;;;;7.85;5.83;;;;;;;10.26;59.50;101363.28;2337386;83;25206;-75
2021/12/18 10:32:13;;;;;;;9.75;7.12;;;;;;;10.25;59.42;101365.36;2335969;83;25558;-71
2021/12/18 10:35:50;;;;;;;9.18;6.12;;;;;;;10.23;59.35;101351.39;2314942;85;26324;-89
2021/12/18 10:39:16;;;;;;;9.85;6.75;;;;;;;10.22;59.34;101337.86;2314589;85;25714;-81
2021/12/18 10:42:44;;;;;;;11.40;6.97;;;;;;;10.22;59.28;101338.28;2313979;85;25731;-71
2021/12/18 10:46:05;;;;;;;11.15;8.73;;;;;;;10.20;59.23;101336.05;2315205;85;25670;-78
2021/12/18 10:49:31;;;;;;;12.13;7.42;;;;;;;10.17;59.21;101325.97;2338587;83;31037;-82
2021/12/18 10:53:15;;;;;;;8.78;7.28;;;;;;;10.14;59.19;101320.63;2348760;84;25775;-74
2021/12/18 10:56:40;;;;;;;8.58;7.55;;;;;;;10.15;59.18;101317.60;2354182;83;25712;-79
2021/12/18 11:00:01;;;;;;;12.98;7.95;;;;;;;10.14;59.15;101310.63;2353457;83;26294;-77
2021/12/18 11:03:45;;;;;;;8.80;7.27;;;;;;;10.15;59.10;101299.36;2354156;83;30663;-71
2021/12/18 11:07:22;;;;;;;13.08;8.08;;;;;;;10.15;59.06;101294.15;2355475;84;25838;-73
2021/12/18 11:10:54;;;;;;;157.80;76.28;;;;;;;10.15;59.02;101283.73;2354944;84;25882;-73
2021/12/18 11:14:17;;;;;;;151.12;76.12;;;;;;;10.46;63.35;101278.44;2353014;82;26181;-92
2021/12/18 11:17:38;;;;;;;175.38;84.45;;;;;;;10.50;61.98;101266.91;2356509;83;26269;-78
2021/12/18 11:20:59;;;;;;;80.62;40.33;;;;;;;10.57;63.10;101266.72;2356235;82;25914;-78
2021/12/18 11:24:52;;;;;;;38.95;19.70;;;;;;;10.50;61.36;101261.69;2319454;83;25748;-88
2021/12/18 11:28:24;;;;;;;26.10;14.93;;;;;;;10.27;60.32;101258.20;2344937;84;25617;-89
2021/12/18 11:31:51;;;;;;;17.80;11.43;;;;;;;10.04;59.75;101253.34;2349431;83;25719;-76
2021/12/18 11:35:42;;;;;;;22.82;11.57;;;;;;;9.86;59.28;101249.59;2350563;83;25659;-80
2021/12/18 11:39:09;;;;;;;19.07;11.38;;;;;;;9.74;59.02;101246.48;2353160;84;25704;-86
2021/12/18 11:42:43;;;;;;;20.12;12.28;;;;;;;9.62;58.69;101238.20;2276726;86;25790;-75
2021/12/18 11:46:39;;;;;;;16.10;11.45;;;;;;;9.51;58.42;101249.86;2255034;86;25979;-88
2021/12/18 11:50:51;;;;;;;;;;;;;;;;;;;;;
2021/12/18 11:54:56;;;;;;;20.80;10.63;;;;;;;9.24;58.15;101230.95;2313286;85;25874;-85
2021/12/18 11:58:48;;;;;;;17.62;10.45;;;;;;;9.11;58.05;101238.67;2291801;85;25783;-79
2021/12/18 12:02:20;;;;;;;40.52;21.60;;;;;;;9.00;58.00;101219.09;2299445;85;26091;-86
2021/12/18 12:06:24;;;;;;;36.53;18.12;;;;;;;9.03;59.87;101217.92;2331678;84;25996;-76
2021/12/18 12:10:19;;;;;;;27.98;14.03;;;;;;;9.23;61.33;101219.66;2312953;85;25713;-76
2021/12/18 12:14:13;;;;;;;28.52;16.60;;;;;;;9.42;60.67;101208.32;2256911;87;25741;-76
2021/12/18 12:18:04;;;;;;;28.30;14.65;;;;;;;9.56;62.60;101203.67;2222100;88;25801;-81
2021/12/18 12:22:08;;;;;;;19.77;11.33;;;;;;;9.84;63.37;101180.04;2222409;88;25704;-78
2021/12/18 12:26:07;;;;;;;19.23;11.97;;;;;;;10.14;62.39;101169.91;2176995;90;25863;-81
2021/12/18 12:29:51;;;;;;;19.67;10.35;;;;;;;10.34;65.01;101155.06;2187893;89;25700;-75
2021/12/18 12:33:39;;;;;;;15.05;9.00;;;;;;;10.29;61.88;101143.56;2158661;91;26153;-72
2021/12/18 12:37:27;;;;;;;20.40;9.93;;;;;;;10.07;61.04;101144.47;2135454;92;25768;-76
2021/12/18 12:40:56;;;;;;;13.25;8.23;;;;;;;9.87;60.50;101131.56;2136616;92;25665;-76
2021/12/18 12:44:40;;;;;;;17.30;7.92;;;;;;;9.71;60.18;101131.79;2136383;92;25744;-82
2021/12/18 12:48:08;;;;;;;12.88;9.08;;;;;;;9.60;59.96;101137.89;1998584;98;25732;-77
2021/12/18 12:52:15;;;;;;;13.25;8.53;;;;;;;9.53;59.75;101142.37;1999002;97;25796;-80
2021/12/18 12:55:45;;;;;;;12.40;7.65;;;;;;;9.43;59.63;101128.52;1939698;100;25885;-78
2021/12/18 13:00:17;;;;;;;13.13;8.63;;;;;;;9.51;60.10;101123.20;1960272;99;25667;-81
2021/12/18 13:03:48;;;;;;;12.75;7.85;;;;;;;9.50;59.59;101123.14;1954898;100;25855;-83
2021/12/18 13:07:16;;;;;;;11.60;8.60;;;;;;;9.38;59.36;101119.62;1942129;100;25789;-75
2021/12/18 13:10:40;;;;;;;17.02;7.95;;;;;;;9.32;59.20;101120.70;1962080;100;25793;-80
2021/12/18 13:14:04;;;;;;;13.30;7.85;;;;;;;9.20;59.04;101111.97;1975890;98;25791;-73
2021/12/18 13:17:41;;;;;;;17.95;9.68;;;;;;;9.08;58.91;101119.27;2012158;93;25522;-75
2021/12/18 13:25:11;;;;;;;16.07;9.30;;;;;;;8.89;58.69;101105.92;2058063;95;25880;-83
2021/12/18 13:29:00;;;;;;;12.30;7.80;;;;;;;8.82;58.72;101114.30;2070020;93;25833;-78
2021/12/18 13:32:21;;;;;;;10.05;6.58;;;;;;;8.82;62.49;101118.20;2176785;89;25733;-84
2021/12/18 13:35:44;;;;;;;12.85;7.35;;;;;;;9.52;63.03;101110.67;2218540;89;25764;-85
2021/12/18 13:39:12;;;;;;;16.43;8.33;;;;;;;9.61;61.42;101111.02;2218723;89;27137;-71
2021/12/18 13:42:35;;;;;;;15.88;8.15;;;;;;;9.84;62.80;101114.93;2217793;89;25767;-88
2021/12/18 13:46:09;;;;;;;18.17;8.60;;;;;;;9.84;61.42;101106.70;2211180;88;25686;-79
2021/12/18 13:49:30;;;;;;;13.95;9.18;;;;;;;9.77;60.95;101111.20;2192378;89;25820;-76
2021/12/18 13:53:05;;;;;;;15.55;9.15;;;;;;;9.68;60.62;101113.02;2205936;89;30563;-91
2021/12/18 13:56:30;;;;;;;9.78;8.35;;;;;;;9.60;60.38;101097.53;2326358;83;25712;-77
2021/12/18 13:59:58;;;;;;;14.63;9.40;;;;;;;9.54;60.17;101092.08;2375439;83;25656;-72
2021/12/18 14:03:50;;;;;;;20.08;11.00;;;;;;;9.52;59.99;101091.54;2376330;83;25765;-71
2021/12/18 14:07:11;;;;;;;17.55;10.90;;;;;;;9.48;59.77;101081.84;2376849;83;25657;-72
2021/12/18 14:10:33;;;;;;;25.02;13.48;;;;;;;9.43;59.60;101077.34;2377205;82;26259;-80
2021/12/18 14:14:10;;;;;;;20.62;11.60;;;;;;;9.41;59.47;101070.30;2376851;83;25619;-73
2021/12/18 14:17:36;;;;;;;18.67;11.35;;;;;;;9.38;59.34;101080.20;2381420;81;25668;-76
2021/12/18 14:20:57;;;;;;;21.77;12.45;;;;;;;9.34;59.30;101065.27;2382439;82;25681;-84
2021/12/18 14:24:22;;;;;;;23.77;12.63;;;;;;;9.31;59.22;101059.94;2382462;82;26003;-72
2021/12/18 14:27:49;;;;;;;31.15;13.98;;;;;;;9.26;59.20;101052.38;2382502;82;25578;-74
2021/12/18 14:31:40;;;;;;;26.70;13.62;;;;;;;9.25;59.11;101054.52;2381986;82;25720;-71
2021/12/18 14:35:10;;;;;;;33.35;15.83;;;;;;;9.23;59.03;101047.94;2380062;83;26292;-78
2021/12/18 14:38:31;;;;;;;44.42;17.67;;;;;;;9.20;58.99;101039.12;2381459;83;25263;-84
2021/12/18 14:42:08;;;;;;;38.03;16.57;;;;;;;9.18;58.96;101035.59;2381514;83;30885;-76
2021/12/18 14:45:33;;;;;;;43.75;17.00;;;;;;;9.16;58.92;101022.52;2386799;82;25521;-81
2021/12/18 14:49:10;;;;;;;40.45;17.77;;;;;;;9.15;58.89;101027.67;2387166;82;25648;-71
2021/12/18 14:52:34;;;;;;;48.50;18.57;;;;;;;9.26;59.44;101028.97;2387772;82;25647;-86
2021/12/18 14:56:05;;;;;;;43.35;18.73;;;;;;;9.26;59.34;101017.26;2381680;82;25725;-74
2021/12/18 14:59:23;;;;;;;51.70;20.97;;;;;;;9.23;59.25;101009.33;2382588;82;25641;-81
2021/12/18 15:03:01;;;;;;;49.37;19.50;;;;;;;9.20;59.15;101006.61;2388258;82;34754;-71
2021/12/18 15:06:35;;;;;;;50.60;19.85;;;;;;;9.17;59.09;101002.16;2388152;82;25718;-75
2021/12/18 15:09:57;;;;;;;43.48;19.52;;;;;;;9.16;59.03;101000.40;2387516;82;25721;-72
2021/12/18 15:13:23;;;;;;;53.00;21.07;;;;;;;9.15;58.97;100990.83;2365504;82;25619;-76
2021/12/18 15:17:01;;;;;;;48.15;19.67;;;;;;;9.13;58.91;100992.47;2353546;81;25718;-82
2021/12/18 15:20:22;;;;;;;42.88;19.92;;;;;;;9.13;58.88;100978.58;2353878;82;25703;-72
2021/12/18 15:23:44;;;;;;;45.38;20.20;;;;;;;9.11;58.86;100978.92;2356016;82;25846;-74
2021/12/18 15:27:14;;;;;;;48.58;19.70;;;;;;;9.13;58.85;100977.28;2355160;82;25636;-73
2021/12/18 15:30:34;;;;;;;42.93;19.98;;;;;;;9.11;58.79;100966.83;2356068;83;25619;-76
2021/12/18 15:33:55;;;;;;;45.75;21.48;;;;;;;9.10;58.72;100953.33;2351230;84;28012;-79
2021/12/18 15:37:18;;;;;;;42.17;19.35;;;;;;;9.10;58.70;100936.42;2356918;83;25608;-73
2021/12/18 15:40:40;;;;;;;41.63;20.68;;;;;;;9.09;58.68;100948.09;2328132;82;25544;-70
2021/12/18 15:44:02;;;;;;;37.60;20.23;;;;;;;9.09;58.63;100950.27;2327480;84;25669;-77
2021/12/18 15:47:24;;;;;;;40.00;19.60;;;;;;;9.09;58.63;100946.78;2326523;84;25737;-84
2021/12/18 15:50:47;;;;;;;32.10;17.20;;;;;;;9.09;58.59;100937.68;2326800;84;27494;-73
2021/12/18 15:54:10;;;;;;;37.10;17.95;;;;;;;9.08;58.58;100934.20;2355119;82;25739;-72
2021/12/18 15:57:30;;;;;;;32.98;17.07;;;;;;;9.08;58.55;100928.08;2354833;84;25598;-73
2021/12/18 16:00:51;;;;;;;31.67;16.87;;;;;;;9.07;58.55;100925.90;2355485;84;30904;-84
2021/12/18 16:04:14;;;;;;;32.95;17.52;;;;;;;9.08;58.52;100917.67;2326561;82;25714;-74
2021/12/18 16:07:37;;;;;;;30.97;17.45;;;;;;;9.06;58.49;100902.03;2355474;84;27906;-77
2021/12/18 16:10:58;;;;;;;24.37;16.10;;;;;;;9.06;58.52;100895.95;2354961;84;25647;-75
2021/12/18 16:14:19;;;;;;;27.62;15.35;;;;;;;9.05;58.51;100885.08;2354920;82;25218;-75
2021/12/18 16:17:43;;;;;;;27.30;15.17;;;;;;;9.05;58.53;100883.78;2356520;82;30546;-76
2021/12/18 16:21:07;;;;;;;28.40;16.45;;;;;;;9.07;58.65;100889.91;2353244;82;25303;-78
2021/12/18 16:24:28;;;;;;;26.87;15.08;;;;;;;9.11;58.92;100909.99;2345412;84;26498;-73
2021/12/18 16:27:50;;;;;;;25.67;15.57;;;;;;;9.16;59.29;100905.45;2346612;83;29981;-72
2021/12/18 16:31:14;;;;;;;24.43;15.13;;;;;;;9.21;59.20;100913.41;2334934;84;25134;-79
2021/12/18 16:34:37;;;;;;;26.23;15.23;;;;;;;9.25;59.49;100918.31;2346778;83;25779;-82
2021/12/18 16:41:32;;;;;;;24.60;16.25;;;;;;;9.27;59.38;100912.77;2329689;84;25442;-77
2021/12/18 16:44:56;;;;;;;25.32;16.07;;;;;;;9.26;59.27;100911.88;2352932;84;25725;-73
2021/12/18 16:48:18;;;;;;;28.52;16.75;;;;;;;9.26;59.14;100904.50;2353854;84;25659;-82
2021/12/18 16:51:39;;;;;;;24.57;17.10;;;;;;;9.25;59.07;100891.00;2353637;83;25671;-77
2021/12/18 16:54:59;;;;;;;27.60;15.63;;;;;;;9.25;59.01;100871.09;2348645;84;30074;-75